sensor_id;sensor_type;location;lat;lon;timestamp;temperature;humidity
22224;DHT22;11281;52.194;21.006;2022-09-03T00:07:01;9.00;99.90
22224;DHT22;11281;52.194;21.006;2022-09-03T00:11:29;8.80;99.90
22224;DHT22;11281;52.194;21.006;2022-09-03T00:15:56;8.80;99.90
22224;DHT22;11281;52.194;21.006;2022-09-03T00:20:31;8.80;99.90
22224;DHT22;11281;52.194;21.006;2022-09-03T00:24:56;8.80;99.90
22224;DHT22;11281;52.194;21.006;2022-09-03T00:29:26;8.80;99.90
22224;DHT22;11281;52.194;21.006;2022-09-03T00:34:09;8.90;99.90
22224;DHT22;11281;52.194;21.006;2022-09-03T00:38:32;9.00;99.90
22224;DHT22;11281;52.194;21.006;2022-09-03T01:03:05;8.70;99.90
22224;DHT22;11281;52.194;21.006;2022-09-03T01:07:40;8.60;99.90
22224;DHT22;11281;52.194;21.006;2022-09-03T01:12:13;8.80;99.90
22224;DHT22;11281;52.194;21.006;2022-09-03T01:41:05;8.30;99.90
22224;DHT22;11281;52.194;21.006;2022-09-03T01:46:24;8.30;99.90
22224;DHT22;11281;52.194;21.006;2022-09-03T01:55:33;8.50;99.90
22224;DHT22;11281;52.194;21.006;2022-09-03T02:00:14;8.60;99.90
22224;DHT22;11281;52.194;21.006;2022-09-03T02:04:40;8.50;99.90
22224;DHT22;11281;52.194;21.006;2022-09-03T02:09:02;8.60;99.90
22224;DHT22;11281;52.194;21.006;2022-09-03T02:13:33;8.60;99.90
22224;DHT22;11281;52.194;21.006;2022-09-03T02:18:01;8.60;99.90
22224;DHT22;11281;52.194;21.006;2022-09-03T02:22:24;8.60;99.90
22224;DHT22;11281;52.194;21.006;2022-09-03T02:26:46;8.50;99.90
22224;DHT22;11281;52.194;21.006;2022-09-03T02:31:08;8.50;99.90
22224;DHT22;11281;52.194;21.006;2022-09-03T02:35:29;8.30;99.90
22224;DHT22;11281;52.194;21.006;2022-09-03T02:39:51;8.60;99.90
22224;DHT22;11281;52.194;21.006;2022-09-03T02:44:25;8.40;99.90
22224;DHT22;11281;52.194;21.006;2022-09-03T02:48:52;8.20;99.90
22224;DHT22;11281;52.194;21.006;2022-09-03T02:53:14;8.00;99.90
22224;DHT22;11281;52.194;21.006;2022-09-03T02:57:36;7.90;99.90
22224;DHT22;11281;52.194;21.006;2022-09-03T03:01:57;7.80;99.90
22224;DHT22;11281;52.194;21.006;2022-09-03T03:06:19;7.70;99.90
22224;DHT22;11281;52.194;21.006;2022-09-03T03:10:42;7.60;99.90
22224;DHT22;11281;52.194;21.006;2022-09-03T03:15:06;7.40;99.90
22224;DHT22;11281;52.194;21.006;2022-09-03T03:19:28;7.40;99.90
22224;DHT22;11281;52.194;21.006;2022-09-03T03:23:50;7.40;99.90
22224;DHT22;11281;52.194;21.006;2022-09-03T03:28:12;7.50;99.90
22224;DHT22;11281;52.194;21.006;2022-09-03T03:32:38;7.50;99.90
22224;DHT22;11281;52.194;21.006;2022-09-03T03:37:00;7.50;99.90
22224;DHT22;11281;52.194;21.006;2022-09-03T03:41:24;7.40;99.90
22224;DHT22;11281;52.194;21.006;2022-09-03T03:45:58;7.40;99.90
22224;DHT22;11281;52.194;21.006;2022-09-03T03:50:19;7.50;99.90
22224;DHT22;11281;52.194;21.006;2022-09-03T03:54:41;7.70;99.90
22224;DHT22;11281;52.194;21.006;2022-09-03T03:59:03;7.70;99.90
22224;DHT22;11281;52.194;21.006;2022-09-03T04:03:24;7.60;99.90
22224;DHT22;11281;52.194;21.006;2022-09-03T04:07:46;7.50;99.90
22224;DHT22;11281;52.194;21.006;2022-09-03T04:12:08;7.50;99.90
22224;DHT22;11281;52.194;21.006;2022-09-03T04:16:30;7.60;99.90
22224;DHT22;11281;52.194;21.006;2022-09-03T04:20:53;7.50;99.90
22224;DHT22;11281;52.194;21.006;2022-09-03T04:25:19;7.60;99.90
22224;DHT22;11281;52.194;21.006;2022-09-03T04:29:41;7.60;99.90
22224;DHT22;11281;52.194;21.006;2022-09-03T04:34:03;7.70;99.90
22224;DHT22;11281;52.194;21.006;2022-09-03T04:38:29;7.60;99.90
22224;DHT22;11281;52.194;21.006;2022-09-03T04:42:56;7.70;99.90
22224;DHT22;11281;52.194;21.006;2022-09-03T04:47:19;7.70;99.90
22224;DHT22;11281;52.194;21.006;2022-09-03T04:51:41;7.80;99.90
22224;DHT22;11281;52.194;21.006;2022-09-03T04:56:18;8.00;99.90
22224;DHT22;11281;52.194;21.006;2022-09-03T05:00:41;8.10;99.90
22224;DHT22;11281;52.194;21.006;2022-09-03T05:05:03;8.30;99.90
22224;DHT22;11281;52.194;21.006;2022-09-03T05:09:25;8.40;99.90
22224;DHT22;11281;52.194;21.006;2022-09-03T05:13:51;8.50;99.90
22224;DHT22;11281;52.194;21.006;2022-09-03T05:18:14;8.70;99.90
22224;DHT22;11281;52.194;21.006;2022-09-03T05:22:36;9.00;99.90
22224;DHT22;11281;52.194;21.006;2022-09-03T05:26:57;9.10;99.90
22224;DHT22;11281;52.194;21.006;2022-09-03T05:31:20;9.30;99.90
22224;DHT22;11281;52.194;21.006;2022-09-03T05:35:42;9.40;99.90
22224;DHT22;11281;52.194;21.006;2022-09-03T05:40:05;9.50;99.90
22224;DHT22;11281;52.194;21.006;2022-09-03T05:44:28;9.70;99.90
22224;DHT22;11281;52.194;21.006;2022-09-03T05:48:50;9.70;99.90
22224;DHT22;11281;52.194;21.006;2022-09-03T05:53:12;9.70;99.90
22224;DHT22;11281;52.194;21.006;2022-09-03T05:57:33;9.70;99.90
22224;DHT22;11281;52.194;21.006;2022-09-03T06:01:56;9.80;99.90
22224;DHT22;11281;52.194;21.006;2022-09-03T06:06:18;10.00;99.90
22224;DHT22;11281;52.194;21.006;2022-09-03T06:10:45;10.10;99.90
22224;DHT22;11281;52.194;21.006;2022-09-03T06:15:07;10.20;99.90
22224;DHT22;11281;52.194;21.006;2022-09-03T06:19:29;10.50;99.90
22224;DHT22;11281;52.194;21.006;2022-09-03T06:23:52;11.20;99.90
22224;DHT22;11281;52.194;21.006;2022-09-03T06:28:18;11.20;99.90
22224;DHT22;11281;52.194;21.006;2022-09-03T06:32:46;11.40;99.90
22224;DHT22;11281;52.194;21.006;2022-09-03T06:37:08;11.90;99.90
22224;DHT22;11281;52.194;21.006;2022-09-03T06:41:31;11.90;99.90
22224;DHT22;11281;52.194;21.006;2022-09-03T06:46:05;12.00;99.90
22224;DHT22;11281;52.194;21.006;2022-09-03T06:50:29;12.60;99.90
22224;DHT22;11281;52.194;21.006;2022-09-03T06:54:50;13.40;99.90
22224;DHT22;11281;52.194;21.006;2022-09-03T06:59:13;13.80;99.90
22224;DHT22;11281;52.194;21.006;2022-09-03T07:03:36;13.60;99.90
22224;DHT22;11281;52.194;21.006;2022-09-03T07:07:59;14.00;99.90
22224;DHT22;11281;52.194;21.006;2022-09-03T07:12:21;14.00;99.90
22224;DHT22;11281;52.194;21.006;2022-09-03T07:16:43;14.20;99.90
22224;DHT22;11281;52.194;21.006;2022-09-03T07:21:08;14.10;99.90
22224;DHT22;11281;52.194;21.006;2022-09-03T07:25:30;14.40;99.90
22224;DHT22;11281;52.194;21.006;2022-09-03T07:29:52;14.40;99.90
22224;DHT22;11281;52.194;21.006;2022-09-03T07:34:14;14.80;99.90
22224;DHT22;11281;52.194;21.006;2022-09-03T07:38:36;14.80;99.90
22224;DHT22;11281;52.194;21.006;2022-09-03T07:42:58;15.10;99.90
22224;DHT22;11281;52.194;21.006;2022-09-03T07:47:23;15.10;99.90
22224;DHT22;11281;52.194;21.006;2022-09-03T07:51:46;15.40;99.90
22224;DHT22;11281;52.194;21.006;2022-09-03T07:56:11;15.60;99.90
22224;DHT22;11281;52.194;21.006;2022-09-03T08:00:33;15.70;99.90
22224;DHT22;11281;52.194;21.006;2022-09-03T08:04:55;15.90;99.90
22224;DHT22;11281;52.194;21.006;2022-09-03T08:09:17;16.10;99.90
22224;DHT22;11281;52.194;21.006;2022-09-03T08:13:47;16.00;99.90
22224;DHT22;11281;52.194;21.006;2022-09-03T08:18:22;16.30;99.90
22224;DHT22;11281;52.194;21.006;2022-09-03T08:22:44;16.10;99.90
22224;DHT22;11281;52.194;21.006;2022-09-03T08:27:06;16.50;99.90
22224;DHT22;11281;52.194;21.006;2022-09-03T08:31:29;16.50;99.90
22224;DHT22;11281;52.194;21.006;2022-09-03T08:35:53;16.40;99.90
22224;DHT22;11281;52.194;21.006;2022-09-03T08:40:15;16.80;99.90
22224;DHT22;11281;52.194;21.006;2022-09-03T08:44:48;16.90;99.90
22224;DHT22;11281;52.194;21.006;2022-09-03T08:49:14;17.10;99.90
22224;DHT22;11281;52.194;21.006;2022-09-03T08:53:43;17.20;99.90
22224;DHT22;11281;52.194;21.006;2022-09-03T08:58:16;17.20;99.90
22224;DHT22;11281;52.194;21.006;2022-09-03T09:17:59;18.00;99.10
22224;DHT22;11281;52.194;21.006;2022-09-03T09:22:47;17.70;98.50
22224;DHT22;11281;52.194;21.006;2022-09-03T09:27:16;17.70;99.90
22224;DHT22;11281;52.194;21.006;2022-09-03T09:31:38;18.00;96.10
22224;DHT22;11281;52.194;21.006;2022-09-03T09:36:03;18.20;97.30
22224;DHT22;11281;52.194;21.006;2022-09-03T09:40:37;18.40;94.10
22224;DHT22;11281;52.194;21.006;2022-09-03T09:45:09;18.60;94.30
22224;DHT22;11281;52.194;21.006;2022-09-03T09:49:37;18.50;94.40
22224;DHT22;11281;52.194;21.006;2022-09-03T09:54:18;18.50;94.70
22224;DHT22;11281;52.194;21.006;2022-09-03T09:58:48;18.50;92.60
22224;DHT22;11281;52.194;21.006;2022-09-03T10:03:10;19.00;91.80
22224;DHT22;11281;52.194;21.006;2022-09-03T10:07:33;19.10;92.70
22224;DHT22;11281;52.194;21.006;2022-09-03T10:12:19;18.80;91.30
22224;DHT22;11281;52.194;21.006;2022-09-03T10:16:48;18.90;92.30
22224;DHT22;11281;52.194;21.006;2022-09-03T10:21:17;18.90;92.70
22224;DHT22;11281;52.194;21.006;2022-09-03T10:30:29;19.00;87.60
22224;DHT22;11281;52.194;21.006;2022-09-03T10:35:29;19.20;88.20
22224;DHT22;11281;52.194;21.006;2022-09-03T10:49:44;19.50;90.30
22224;DHT22;11281;52.194;21.006;2022-09-03T10:54:22;20.00;85.70
22224;DHT22;11281;52.194;21.006;2022-09-03T10:59:16;19.60;80.30
22224;DHT22;11281;52.194;21.006;2022-09-03T11:09:00;18.90;86.60
22224;DHT22;11281;52.194;21.006;2022-09-03T11:13:39;19.60;86.50
22224;DHT22;11281;52.194;21.006;2022-09-03T11:18:28;19.60;84.70
22224;DHT22;11281;52.194;21.006;2022-09-03T11:22:57;19.80;86.40
22224;DHT22;11281;52.194;21.006;2022-09-03T11:32:01;18.60;83.70
22224;DHT22;11281;52.194;21.006;2022-09-03T11:36:50;19.00;84.20
22224;DHT22;11281;52.194;21.006;2022-09-03T11:41:27;19.90;85.80
22224;DHT22;11281;52.194;21.006;2022-09-03T11:50:31;20.00;82.10
22224;DHT22;11281;52.194;21.006;2022-09-03T11:54:54;19.00;83.20
22224;DHT22;11281;52.194;21.006;2022-09-03T11:59:19;19.60;80.30
22224;DHT22;11281;52.194;21.006;2022-09-03T12:03:55;19.70;80.90
22224;DHT22;11281;52.194;21.006;2022-09-03T12:09:21;19.80;78.20
22224;DHT22;11281;52.194;21.006;2022-09-03T12:18:23;19.80;79.80
22224;DHT22;11281;52.194;21.006;2022-09-03T12:22:47;19.90;74.30
22224;DHT22;11281;52.194;21.006;2022-09-03T12:27:17;19.90;73.30
22224;DHT22;11281;52.194;21.006;2022-09-03T12:31:45;19.60;80.10
22224;DHT22;11281;52.194;21.006;2022-09-03T12:36:13;20.00;81.50
22224;DHT22;11281;52.194;21.006;2022-09-03T12:40:41;20.20;76.80
22224;DHT22;11281;52.194;21.006;2022-09-03T12:45:06;20.30;73.10
22224;DHT22;11281;52.194;21.006;2022-09-03T12:54:04;20.00;75.70
22224;DHT22;11281;52.194;21.006;2022-09-03T12:58:35;20.10;75.10
22224;DHT22;11281;52.194;21.006;2022-09-03T13:03:18;20.40;70.70
22224;DHT22;11281;52.194;21.006;2022-09-03T13:07:54;20.40;75.30
22224;DHT22;11281;52.194;21.006;2022-09-03T13:12:22;20.60;74.90
22224;DHT22;11281;52.194;21.006;2022-09-03T13:17:06;20.40;69.60
22224;DHT22;11281;52.194;21.006;2022-09-03T13:21:43;20.50;79.00
22224;DHT22;11281;52.194;21.006;2022-09-03T13:26:39;20.30;74.80
22224;DHT22;11281;52.194;21.006;2022-09-03T13:36:08;20.20;72.50
22224;DHT22;11281;52.194;21.006;2022-09-03T13:40:40;20.10;77.10
22224;DHT22;11281;52.194;21.006;2022-09-03T13:50:29;19.90;75.40
22224;DHT22;11281;52.194;21.006;2022-09-03T13:54:59;20.10;72.10
22224;DHT22;11281;52.194;21.006;2022-09-03T14:00:08;20.10;72.20
22224;DHT22;11281;52.194;21.006;2022-09-03T14:04:50;19.90;74.20
22224;DHT22;11281;52.194;21.006;2022-09-03T14:15:00;20.30;73.80
22224;DHT22;11281;52.194;21.006;2022-09-03T14:24:19;20.20;71.60
22224;DHT22;11281;52.194;21.006;2022-09-03T14:34:21;20.30;74.50
22224;DHT22;11281;52.194;21.006;2022-09-03T14:38:43;20.20;77.50
22224;DHT22;11281;52.194;21.006;2022-09-03T14:57:52;19.70;73.50
22224;DHT22;11281;52.194;21.006;2022-09-03T15:07:55;19.60;77.80
22224;DHT22;11281;52.194;21.006;2022-09-03T15:12:24;19.60;73.90
22224;DHT22;11281;52.194;21.006;2022-09-03T15:36:43;19.00;82.80
22224;DHT22;11281;52.194;21.006;2022-09-03T15:51:27;18.80;80.20
22224;DHT22;11281;52.194;21.006;2022-09-03T16:00:52;18.30;84.30
22224;DHT22;11281;52.194;21.006;2022-09-03T16:05:41;18.20;83.30
22224;DHT22;11281;52.194;21.006;2022-09-03T16:10:17;17.90;90.40
22224;DHT22;11281;52.194;21.006;2022-09-03T16:14:43;17.50;91.40
22224;DHT22;11281;52.194;21.006;2022-09-03T16:23:59;17.10;95.70
22224;DHT22;11281;52.194;21.006;2022-09-03T16:28:42;16.70;97.70
22224;DHT22;11281;52.194;21.006;2022-09-03T16:42:40;16.00;99.90
22224;DHT22;11281;52.194;21.006;2022-09-03T16:47:27;15.70;99.90
22224;DHT22;11281;52.194;21.006;2022-09-03T17:21:38;13.90;99.90
22224;DHT22;11281;52.194;21.006;2022-09-03T17:31:50;13.40;99.90
22224;DHT22;11281;52.194;21.006;2022-09-03T17:36:36;13.40;99.90
22224;DHT22;11281;52.194;21.006;2022-09-03T17:41:13;13.10;99.90
22224;DHT22;11281;52.194;21.006;2022-09-03T17:50:52;13.00;99.90
22224;DHT22;11281;52.194;21.006;2022-09-03T17:55:36;13.00;99.90
22224;DHT22;11281;52.194;21.006;2022-09-03T18:00:09;12.90;99.90
22224;DHT22;11281;52.194;21.006;2022-09-03T18:04:42;12.80;99.90
22224;DHT22;11281;52.194;21.006;2022-09-03T18:14:00;12.70;99.90
22224;DHT22;11281;52.194;21.006;2022-09-03T18:18:46;12.60;99.90
22224;DHT22;11281;52.194;21.006;2022-09-03T18:23:25;12.40;99.90
22224;DHT22;11281;52.194;21.006;2022-09-03T18:28:11;12.20;99.90
22224;DHT22;11281;52.194;21.006;2022-09-03T18:32:53;11.90;99.90
22224;DHT22;11281;52.194;21.006;2022-09-03T18:37:34;11.70;99.90
22224;DHT22;11281;52.194;21.006;2022-09-03T18:42:34;11.50;99.90
22224;DHT22;11281;52.194;21.006;2022-09-03T18:52:30;11.40;99.90
22224;DHT22;11281;52.194;21.006;2022-09-03T18:57:24;11.30;99.90
22224;DHT22;11281;52.194;21.006;2022-09-03T19:07:44;10.90;99.90
22224;DHT22;11281;52.194;21.006;2022-09-03T19:13:38;10.80;99.90
22224;DHT22;11281;52.194;21.006;2022-09-03T19:18:27;10.70;99.90
22224;DHT22;11281;52.194;21.006;2022-09-03T19:23:10;10.70;99.90
22224;DHT22;11281;52.194;21.006;2022-09-03T19:38:54;10.40;99.90
22224;DHT22;11281;52.194;21.006;2022-09-03T19:49:20;10.40;99.90
22224;DHT22;11281;52.194;21.006;2022-09-03T19:54:14;10.30;99.90
22224;DHT22;11281;52.194;21.006;2022-09-03T19:59:08;10.50;99.90
22224;DHT22;11281;52.194;21.006;2022-09-03T20:03:51;10.40;99.90
22224;DHT22;11281;52.194;21.006;2022-09-03T20:08:35;10.30;99.90
22224;DHT22;11281;52.194;21.006;2022-09-03T20:13:17;10.30;99.90
22224;DHT22;11281;52.194;21.006;2022-09-03T20:26:39;10.30;99.90
22224;DHT22;11281;52.194;21.006;2022-09-03T20:31:34;10.30;99.90
22224;DHT22;11281;52.194;21.006;2022-09-03T20:40:57;10.50;99.90
22224;DHT22;11281;52.194;21.006;2022-09-03T20:55:17;10.80;99.90
22224;DHT22;11281;52.194;21.006;2022-09-03T21:09:53;10.90;99.90
22224;DHT22;11281;52.194;21.006;2022-09-03T21:18:47;10.70;99.90
22224;DHT22;11281;52.194;21.006;2022-09-03T21:23:39;10.90;99.90
22224;DHT22;11281;52.194;21.006;2022-09-03T21:28:32;10.80;99.90
22224;DHT22;11281;52.194;21.006;2022-09-03T21:33:10;10.90;99.90
22224;DHT22;11281;52.194;21.006;2022-09-03T21:37:36;11.00;99.90
22224;DHT22;11281;52.194;21.006;2022-09-03T21:47:01;10.90;99.90
22224;DHT22;11281;52.194;21.006;2022-09-03T21:51:29;10.80;99.90
22224;DHT22;11281;52.194;21.006;2022-09-03T21:56:29;11.00;99.90
22224;DHT22;11281;52.194;21.006;2022-09-03T22:01:20;10.80;99.90
22224;DHT22;11281;52.194;21.006;2022-09-03T22:06:00;10.90;99.90
22224;DHT22;11281;52.194;21.006;2022-09-03T22:10:33;11.00;99.90
22224;DHT22;11281;52.194;21.006;2022-09-03T22:14:58;11.10;99.90
22224;DHT22;11281;52.194;21.006;2022-09-03T22:19:20;10.90;99.90
22224;DHT22;11281;52.194;21.006;2022-09-03T22:28:43;10.80;99.90
22224;DHT22;11281;52.194;21.006;2022-09-03T22:56:59;10.40;99.90
22224;DHT22;11281;52.194;21.006;2022-09-03T23:01:47;10.30;99.90
22224;DHT22;11281;52.194;21.006;2022-09-03T23:06:28;10.30;99.90
22224;DHT22;11281;52.194;21.006;2022-09-03T23:11:06;10.40;99.90
22224;DHT22;11281;52.194;21.006;2022-09-03T23:15:32;10.10;99.90
22224;DHT22;11281;52.194;21.006;2022-09-03T23:20:04;10.00;99.90
22224;DHT22;11281;52.194;21.006;2022-09-03T23:24:48;9.90;99.90
22224;DHT22;11281;52.194;21.006;2022-09-03T23:34:01;10.10;99.90
22224;DHT22;11281;52.194;21.006;2022-09-03T23:44:10;10.20;99.90
22224;DHT22;11281;52.194;21.006;2022-09-03T23:49:04;10.00;99.90
